createdAt,value
2019-03-20T00:00:54.005Z,62.20
2019-03-20T00:03:27.807Z,61.60
2019-03-20T00:05:59.796Z,62.50
2019-03-20T00:08:31.702Z,62.10
2019-03-20T00:11:05.392Z,62.80
2019-03-20T00:13:37.462Z,64.20
2019-03-20T00:16:08.506Z,63.20
2019-03-20T00:18:40.490Z,63.00
2019-03-20T00:21:12.378Z,64.50
2019-03-20T00:23:46.143Z,63.30
2019-03-20T00:26:17.148Z,62.40
2019-03-20T00:28:50.975Z,62.60
2019-03-20T00:31:22.875Z,62.30
2019-03-20T00:33:54.900Z,62.00
2019-03-20T00:36:25.924Z,61.20
2019-03-20T00:38:57.830Z,61.20
2019-03-20T00:41:31.914Z,60.90
2019-03-20T00:44:03.522Z,62.60
2019-03-20T00:46:37.327Z,62.80
2019-03-20T00:49:08.353Z,62.00
2019-03-20T00:51:40.408Z,61.20
2019-03-20T00:54:11.308Z,60.60
2019-03-20T00:56:45.004Z,60.30
2019-03-20T00:59:19.883Z,59.80
2019-03-20T01:01:53.740Z,59.60
2019-03-20T01:04:25.716Z,59.50
2019-03-20T01:06:59.486Z,59.40
2019-03-20T01:09:31.550Z,59.40
2019-03-20T01:12:03.556Z,59.30
2019-03-20T01:14:37.573Z,59.50
2019-03-20T01:17:09.874Z,59.20
2019-03-20T01:19:42.879Z,59.10
2019-03-20T01:22:15.018Z,58.80
2019-03-20T01:24:48.992Z,59.10
2019-03-20T01:27:19.924Z,59.30
2019-03-20T01:29:59.749Z,59.00
2019-03-20T01:32:31.667Z,58.80
2019-03-20T01:37:50.516Z,58.70
2019-03-20T01:40:21.674Z,58.80
2019-03-20T01:42:53.795Z,58.90
2019-03-20T01:45:26.059Z,58.80
2019-03-20T01:47:58.198Z,58.60
2019-03-20T01:50:30.297Z,58.50
2019-03-20T01:53:02.420Z,58.50
2019-03-20T01:55:39.602Z,58.50
2019-03-20T01:58:13.416Z,58.60
2019-03-20T02:00:45.645Z,58.20
2019-03-20T02:03:20.431Z,57.80
2019-03-20T02:05:52.449Z,57.60
2019-03-20T02:08:26.234Z,58.40
2019-03-20T02:10:58.570Z,57.90
2019-03-20T02:13:30.533Z,57.40
2019-03-20T02:16:02.445Z,57.10
2019-03-20T02:18:42.273Z,57.10
2019-03-20T02:21:14.208Z,56.90
2019-03-20T02:23:46.277Z,56.50
2019-03-20T02:26:18.483Z,56.30
2019-03-20T02:28:52.131Z,56.20
2019-03-20T02:31:24.178Z,56.30
2019-03-20T02:33:58.253Z,56.20
2019-03-20T02:36:31.786Z,56.30
2019-03-20T02:39:03.939Z,55.80
2019-03-20T02:41:37.747Z,55.70
2019-03-20T02:44:11.622Z,55.70
2019-03-20T02:46:45.019Z,56.00
2019-03-20T02:49:17.031Z,55.70
2019-03-20T02:51:49.152Z,55.30
2019-03-20T02:54:23.104Z,54.90
2019-03-20T02:56:58.417Z,54.80
2019-03-20T02:59:30.048Z,54.60
2019-03-20T03:02:01.894Z,54.70
2019-03-20T03:04:34.131Z,54.30
2019-03-20T03:07:05.052Z,54.00
2019-03-20T03:09:36.955Z,53.60
2019-03-20T03:12:08.002Z,53.60
2019-03-20T03:14:38.923Z,53.50
2019-03-20T03:17:11.244Z,53.20
2019-03-20T03:19:44.969Z,53.30
2019-03-20T03:22:17.119Z,53.00
2019-03-20T03:24:49.235Z,52.60
2019-03-20T03:27:21.206Z,52.50
2019-03-20T03:29:53.334Z,52.30
2019-03-20T03:32:25.397Z,51.50
2019-03-20T03:34:56.338Z,51.40
2019-03-20T03:37:30.092Z,50.80
2019-03-20T03:40:02.237Z,51.40
2019-03-20T03:42:38.823Z,51.20
2019-03-20T03:45:13.653Z,50.40
2019-03-20T03:47:45.729Z,49.60
2019-03-20T03:50:18.687Z,49.20
2019-03-20T03:52:49.708Z,49.10
2019-03-20T03:55:21.612Z,49.20
2019-03-20T03:57:53.531Z,48.20
2019-03-20T04:00:25.474Z,48.70
2019-03-20T04:02:57.614Z,49.10
2019-03-20T04:07:05.874Z,49.40
2019-03-20T04:09:37.022Z,46.90
2019-03-20T04:12:11.148Z,46.40
2019-03-20T04:14:42.575Z,46.80
2019-03-20T04:17:17.406Z,46.90
2019-03-20T04:19:49.839Z,47.40
2019-03-20T04:22:24.077Z,46.20
2019-03-20T04:24:58.663Z,46.00
2019-03-20T04:27:31.204Z,45.90
2019-03-20T04:30:02.416Z,46.00
2019-03-20T04:32:34.842Z,44.20
2019-03-20T04:35:07.408Z,44.10
2019-03-20T04:37:41.447Z,43.70
2019-03-20T04:40:14.920Z,44.70
2019-03-20T04:42:46.254Z,44.00
2019-03-20T04:45:19.206Z,44.80
2019-03-20T04:47:53.565Z,43.10
2019-03-20T04:50:27.862Z,42.40
2019-03-20T04:53:00.206Z,41.30
2019-03-20T04:55:32.779Z,42.20
2019-03-20T04:58:05.122Z,41.60
2019-03-20T05:00:37.476Z,42.30
2019-03-20T05:03:10.033Z,41.30
2019-03-20T05:05:43.007Z,41.10
2019-03-20T05:08:16.947Z,40.90
2019-03-20T05:10:50.782Z,39.70
2019-03-20T05:13:23.064Z,40.20
2019-03-20T05:15:57.986Z,41.20
2019-03-20T05:18:32.048Z,40.80
2019-03-20T05:21:04.644Z,40.40
2019-03-20T05:23:37.058Z,39.30
2019-03-20T05:26:15.107Z,38.70
2019-03-20T05:28:51.909Z,39.70
2019-03-20T05:31:28.914Z,39.30
2019-03-20T05:34:01.530Z,39.80
2019-03-20T05:36:33.735Z,39.40
2019-03-20T05:39:09.070Z,39.60
2019-03-20T05:41:40.585Z,39.60
2019-03-20T05:44:13.487Z,38.50
2019-03-20T05:46:46.074Z,39.40
2019-03-20T05:49:18.519Z,39.70
2019-03-20T05:51:55.463Z,40.40
2019-03-20T05:54:27.087Z,40.50
2019-03-20T05:57:00.888Z,40.40
2019-03-20T05:59:37.643Z,39.70
2019-03-20T06:02:11.473Z,41.00
2019-03-20T06:04:43.795Z,40.80
2019-03-20T06:07:21.609Z,40.40
2019-03-20T06:09:50.758Z,40.50
2019-03-20T06:12:27.854Z,36.30
2019-03-20T06:15:02.251Z,37.30
2019-03-20T06:17:37.149Z,37.70
2019-03-20T06:20:14.711Z,37.50
2019-03-20T06:22:47.056Z,39.00
2019-03-20T06:25:21.690Z,39.00
2019-03-20T06:27:56.055Z,39.30
2019-03-20T06:30:30.476Z,39.70
2019-03-20T06:33:03.103Z,37.40
2019-03-20T06:35:35.337Z,36.60
2019-03-20T06:38:07.569Z,37.10
2019-03-20T06:40:39.661Z,37.00
2019-03-20T06:43:11.899Z,37.90
2019-03-20T06:45:44.326Z,37.30
2019-03-20T06:48:23.002Z,37.40
2019-03-20T06:51:02.995Z,37.40
2019-03-20T06:53:35.367Z,36.20
2019-03-20T06:56:13.579Z,36.90
2019-03-20T06:58:46.769Z,35.80
2019-03-20T07:01:23.181Z,34.60
2019-03-20T07:03:58.286Z,35.10
2019-03-20T07:06:33.631Z,35.50
2019-03-20T07:09:08.869Z,35.10
2019-03-20T07:11:42.725Z,35.40
2019-03-20T07:14:15.031Z,33.60
2019-03-20T07:16:47.226Z,35.60
2019-03-20T07:19:18.495Z,33.50
2019-03-20T07:21:50.707Z,33.50
2019-03-20T07:24:24.007Z,33.60
2019-03-20T07:27:01.660Z,33.40
2019-03-20T07:29:33.808Z,33.20
2019-03-20T07:32:06.570Z,33.10
2019-03-20T07:34:39.365Z,33.90
2019-03-20T07:37:12.301Z,34.60
2019-03-20T07:39:45.464Z,33.70
2019-03-20T07:42:19.792Z,32.40
2019-03-20T07:44:53.426Z,32.20
2019-03-20T07:47:32.986Z,31.10
2019-03-20T07:53:06.259Z,31.60
2019-03-20T07:55:38.678Z,33.40
2019-03-20T07:58:09.948Z,32.80
2019-03-20T08:00:44.651Z,33.70
2019-03-20T08:03:18.879Z,34.60
2019-03-20T08:05:51.139Z,34.70
2019-03-20T08:08:26.234Z,33.30
2019-03-20T08:10:58.862Z,32.90
2019-03-20T08:13:33.177Z,33.60
2019-03-20T08:16:13.354Z,35.10
2019-03-20T08:18:46.128Z,34.10
2019-03-20T08:21:20.275Z,34.60
2019-03-20T08:23:54.285Z,34.80
2019-03-20T08:26:34.044Z,34.70
2019-03-20T08:29:08.270Z,34.90
2019-03-20T08:31:41.960Z,36.00
2019-03-20T08:34:14.329Z,35.90
2019-03-20T08:36:46.536Z,36.00
2019-03-20T08:39:21.194Z,35.00
2019-03-20T08:41:55.828Z,35.20
2019-03-20T08:44:28.361Z,34.70
2019-03-20T08:47:06.750Z,35.80
2019-03-20T08:49:33.375Z,35.60
2019-03-20T08:52:08.065Z,35.70
2019-03-20T08:54:39.539Z,36.30
2019-03-20T08:57:12.280Z,36.50
2019-03-20T08:59:45.128Z,37.70
2019-03-20T09:02:19.121Z,37.30
2019-03-20T09:04:50.338Z,36.90
2019-03-20T09:07:22.720Z,37.00
2019-03-20T09:09:56.596Z,36.40
2019-03-20T09:13:07.276Z,37.00
2019-03-20T09:15:07.716Z,36.90
2019-03-20T09:17:40.297Z,37.30
2019-03-20T09:20:15.290Z,37.40
2019-03-20T09:22:58.910Z,37.40
2019-03-20T09:25:31.093Z,37.20
2019-03-20T09:28:03.760Z,37.70
2019-03-20T09:30:36.210Z,37.80
2019-03-20T09:33:07.768Z,36.90
2019-03-20T09:35:39.845Z,37.30
2019-03-20T09:38:12.695Z,36.90
2019-03-20T09:40:47.664Z,37.60
2019-03-20T09:43:19.574Z,37.20
2019-03-20T09:45:53.724Z,36.50
2019-03-20T09:48:26.436Z,36.80
2019-03-20T09:51:07.896Z,37.30
2019-03-20T09:53:40.135Z,35.70
2019-03-20T09:56:12.480Z,36.80
2019-03-20T09:58:44.812Z,36.40
2019-03-20T10:01:15.859Z,36.80
2019-03-20T10:03:48.296Z,36.10
2019-03-20T10:06:22.468Z,37.30
2019-03-20T10:08:56.312Z,37.00
2019-03-20T10:11:28.681Z,37.30
2019-03-20T10:14:03.733Z,37.50
2019-03-20T10:16:36.506Z,37.80
2019-03-20T10:19:10.794Z,38.00
2019-03-20T10:21:44.880Z,37.80
2019-03-20T10:24:22.909Z,36.80
2019-03-20T10:26:53.951Z,37.40
2019-03-20T10:29:26.376Z,38.00
2019-03-20T10:32:00.433Z,38.10
2019-03-20T10:34:39.358Z,38.90
2019-03-20T10:37:08.313Z,38.20
2019-03-20T10:39:46.006Z,38.40
2019-03-20T10:42:18.207Z,38.50
2019-03-20T10:44:50.386Z,38.80
2019-03-20T10:47:22.384Z,38.90
2019-03-20T10:49:57.162Z,39.30
2019-03-20T10:52:29.444Z,39.30
2019-03-20T10:55:03.033Z,38.90
2019-03-20T10:57:35.663Z,39.10
2019-03-20T11:00:12.460Z,39.30
2019-03-20T11:02:45.359Z,39.60
2019-03-20T11:05:18.324Z,39.70
2019-03-20T11:07:50.497Z,40.10
2019-03-20T11:10:27.625Z,40.40
2019-03-20T11:13:00.244Z,40.60
2019-03-20T11:15:32.782Z,40.60
2019-03-20T11:18:05.045Z,40.80
2019-03-20T11:20:40.725Z,40.80
2019-03-20T11:23:13.406Z,40.70
2019-03-20T11:25:49.399Z,40.50
2019-03-20T11:28:21.640Z,40.60
2019-03-20T11:30:52.871Z,40.80
2019-03-20T11:33:24.260Z,40.90
2019-03-20T11:35:56.624Z,40.90
2019-03-20T11:38:30.422Z,41.00
2019-03-20T11:41:04.500Z,41.00
2019-03-20T11:43:38.692Z,41.10
2019-03-20T11:46:12.363Z,41.00
2019-03-20T11:48:46.389Z,41.10
2019-03-20T11:51:18.558Z,41.10
2019-03-20T11:53:52.677Z,41.30
2019-03-20T11:56:27.095Z,41.40
2019-03-20T11:58:59.373Z,41.40
2019-03-20T12:01:32.223Z,41.40
2019-03-20T12:04:04.485Z,41.40
2019-03-20T12:06:36.580Z,41.50
2019-03-20T12:09:09.800Z,41.60
2019-03-20T12:11:46.036Z,41.50
2019-03-20T12:14:18.326Z,41.40
2019-03-20T12:16:48.575Z,41.40
2019-03-20T12:19:23.524Z,42.10
2019-03-20T12:21:57.560Z,42.10
2019-03-20T12:24:30.267Z,41.60
2019-03-20T12:27:14.217Z,41.70
2019-03-20T12:29:38.739Z,41.80
2019-03-20T12:32:11.225Z,41.80
2019-03-20T12:34:45.450Z,42.50
2019-03-20T12:37:18.127Z,42.00
2019-03-20T12:39:53.485Z,42.60
2019-03-20T12:42:24.673Z,42.00
2019-03-20T12:44:57.323Z,42.20
2019-03-20T12:47:29.618Z,42.90
2019-03-20T12:50:03.577Z,42.30
2019-03-20T12:52:41.376Z,42.40
2019-03-20T12:55:15.002Z,42.40
2019-03-20T12:57:47.329Z,42.60
2019-03-20T13:00:27.063Z,42.60
2019-03-20T13:02:59.924Z,42.60
2019-03-20T13:05:32.302Z,42.60
2019-03-20T13:08:06.103Z,42.60
2019-03-20T13:10:39.701Z,42.70
2019-03-20T13:13:11.103Z,42.60
2019-03-20T13:15:44.982Z,42.70
2019-03-20T13:18:25.606Z,42.50
2019-03-20T13:21:00.017Z,42.70
2019-03-20T13:23:37.871Z,42.80
2019-03-20T13:26:19.068Z,43.10
2019-03-20T13:28:51.841Z,43.20
2019-03-20T13:31:29.093Z,43.40
2019-03-20T13:34:01.699Z,43.80
2019-03-20T13:36:34.760Z,44.30
2019-03-20T13:39:09.956Z,44.40
2019-03-20T13:41:44.073Z,44.60
2019-03-20T13:44:17.437Z,44.70
2019-03-20T13:46:53.773Z,44.50
2019-03-20T13:49:26.597Z,44.70
2019-03-20T13:52:02.343Z,44.90
2019-03-20T13:54:34.562Z,44.60
2019-03-20T13:57:08.584Z,44.60
2019-03-20T13:59:40.742Z,44.60
2019-03-20T14:02:13.278Z,44.60
2019-03-20T14:04:45.959Z,44.70
2019-03-20T14:07:48.420Z,44.80
2019-03-20T14:10:25.315Z,44.80
2019-03-20T14:12:58.309Z,44.90
2019-03-20T14:15:35.692Z,44.90
2019-03-20T14:18:07.512Z,44.90
2019-03-20T14:20:40.866Z,45.10
2019-03-20T14:23:12.373Z,45.10
2019-03-20T14:25:44.549Z,45.20
2019-03-20T14:28:17.230Z,45.20
2019-03-20T14:30:51.311Z,45.40
2019-03-20T14:33:23.954Z,45.60
2019-03-20T14:36:00.133Z,45.40
2019-03-20T14:38:46.845Z,45.40
2019-03-20T14:41:21.821Z,45.50
2019-03-20T14:43:55.847Z,45.50
2019-03-20T14:46:28.624Z,45.50
2019-03-20T14:49:01.232Z,45.60
2019-03-20T14:51:33.418Z,45.70
2019-03-20T14:54:05.799Z,46.30
2019-03-20T14:56:40.187Z,46.10
2019-03-20T14:59:14.680Z,46.30
2019-03-20T15:01:48.205Z,47.20
2019-03-20T15:04:20.680Z,47.10
2019-03-20T15:06:53.623Z,47.20
2019-03-20T15:09:28.075Z,48.00
2019-03-20T15:12:19.973Z,47.40
2019-03-20T15:14:52.676Z,47.10
2019-03-20T15:17:26.765Z,47.00
2019-03-20T15:20:02.148Z,47.10
2019-03-20T15:22:36.873Z,47.40
2019-03-20T15:25:12.006Z,47.50
2019-03-20T15:27:43.368Z,47.20
2019-03-20T15:30:18.449Z,47.60
2019-03-20T15:32:52.805Z,47.80
2019-03-20T15:35:28.929Z,47.80
2019-03-20T15:38:03.438Z,48.00
2019-03-20T15:40:39.692Z,48.20
2019-03-20T15:43:20.891Z,48.00
2019-03-20T15:45:53.604Z,47.60
2019-03-20T15:48:31.035Z,47.50
2019-03-20T15:51:04.012Z,47.50
2019-03-20T15:53:36.585Z,47.60
2019-03-20T15:56:11.109Z,48.40
2019-03-20T15:58:44.245Z,48.10
2019-03-20T16:01:16.815Z,48.10
2019-03-20T16:03:54.071Z,48.00
2019-03-20T16:06:26.955Z,47.70
2019-03-20T16:08:59.769Z,47.90
2019-03-20T16:11:32.821Z,48.20
2019-03-20T16:14:05.727Z,48.90
2019-03-20T16:16:39.333Z,48.30
2019-03-20T16:19:12.630Z,48.70
2019-03-20T16:21:44.390Z,48.70
2019-03-20T16:24:19.025Z,48.90
2019-03-20T16:26:50.952Z,48.70
2019-03-20T16:29:24.130Z,48.80
2019-03-20T16:31:58.589Z,49.20
2019-03-20T16:34:34.095Z,49.60
2019-03-20T16:37:08.758Z,49.10
2019-03-20T16:39:41.682Z,49.50
2019-03-20T16:42:14.534Z,49.20
2019-03-20T16:44:47.453Z,49.40
2019-03-20T16:47:19.951Z,49.50
2019-03-20T16:49:54.839Z,50.20
2019-03-20T16:52:28.447Z,50.70
2019-03-20T16:55:01.318Z,50.40
2019-03-20T16:57:36.175Z,50.20
2019-03-20T17:00:13.494Z,50.40
2019-03-20T17:02:46.494Z,50.80
2019-03-20T17:05:20.759Z,51.10
2019-03-20T17:07:52.580Z,50.60
2019-03-20T17:10:30.500Z,50.70
2019-03-20T17:13:03.939Z,50.90
2019-03-20T17:15:40.229Z,50.70
2019-03-20T17:18:13.012Z,50.80
2019-03-20T17:20:45.592Z,50.90
2019-03-20T17:23:20.261Z,50.80
2019-03-20T17:25:53.388Z,51.10
2019-03-20T17:28:26.117Z,51.30
2019-03-20T17:30:59.700Z,51.30
2019-03-20T17:33:32.707Z,51.20
2019-03-20T17:36:05.199Z,51.20
2019-03-20T17:38:38.131Z,51.40
2019-03-20T17:41:11.380Z,51.40
2019-03-20T17:43:43.338Z,51.40
2019-03-20T17:46:14.989Z,51.80
2019-03-20T17:48:47.758Z,51.70
2019-03-20T17:51:20.111Z,51.50
2019-03-20T17:53:53.317Z,51.50
2019-03-20T17:56:25.756Z,52.20
2019-03-20T17:58:58.161Z,52.10
2019-03-20T18:01:29.690Z,52.00
2019-03-20T18:04:04.261Z,52.10
2019-03-20T18:06:35.898Z,53.90
2019-03-20T18:09:09.698Z,53.50
2019-03-20T18:11:47.436Z,52.80
2019-03-20T18:14:15.296Z,53.10
2019-03-20T18:16:48.091Z,53.80
2019-03-20T18:19:20.862Z,54.20
2019-03-20T18:21:53.407Z,55.00
2019-03-20T18:24:27.694Z,55.20
2019-03-20T18:27:00.893Z,55.10
2019-03-20T18:29:33.419Z,54.80
2019-03-20T18:32:05.995Z,56.50
2019-03-20T18:34:41.564Z,56.80
2019-03-20T18:37:16.843Z,56.20
2019-03-20T18:39:50.048Z,55.40
2019-03-20T18:42:21.819Z,54.80
2019-03-20T18:44:53.367Z,54.50
2019-03-20T18:47:26.070Z,54.50
2019-03-20T18:50:00.638Z,54.60
2019-03-20T18:52:33.237Z,54.30
2019-03-20T18:55:04.734Z,55.80
2019-03-20T18:57:37.779Z,57.40
2019-03-20T19:00:29.044Z,56.80
2019-03-20T19:03:10.711Z,55.70
2019-03-20T19:05:43.309Z,55.70
2019-03-20T19:08:16.002Z,55.90
2019-03-20T19:10:55.329Z,55.50
2019-03-20T19:13:28.219Z,55.30
2019-03-20T19:16:01.185Z,56.50
2019-03-20T19:18:37.585Z,56.00
2019-03-20T19:21:10.761Z,56.20
2019-03-20T19:23:49.442Z,56.80
2019-03-20T19:26:22.448Z,56.20
2019-03-20T19:28:55.788Z,55.80
2019-03-20T19:31:28.904Z,56.10
2019-03-20T19:34:04.024Z,57.40
2019-03-20T19:36:35.810Z,57.60
2019-03-20T19:39:09.714Z,57.60
2019-03-20T19:41:42.685Z,57.20
2019-03-20T19:44:14.380Z,57.00
2019-03-20T19:46:46.244Z,56.80
2019-03-20T19:49:26.104Z,57.50
2019-03-20T19:52:04.083Z,59.00
2019-03-20T19:54:36.367Z,58.40
2019-03-20T19:57:11.033Z,59.40
2019-03-20T19:59:42.858Z,60.00
2019-03-20T20:02:15.843Z,59.30
2019-03-20T20:04:49.690Z,59.50
2019-03-20T20:07:24.579Z,58.40
2019-03-20T20:10:02.139Z,57.90
2019-03-20T20:12:36.550Z,57.80
2019-03-20T20:15:15.660Z,57.70
2019-03-20T20:17:50.061Z,59.20
2019-03-20T20:20:26.889Z,58.90
2019-03-20T20:22:59.724Z,58.90
2019-03-20T20:25:31.462Z,58.80
2019-03-20T20:28:04.276Z,59.00
2019-03-20T20:30:40.345Z,58.70
2019-03-20T20:33:13.144Z,60.20
2019-03-20T20:35:44.833Z,59.90
2019-03-20T20:38:20.660Z,59.90
2019-03-20T20:40:54.121Z,60.60
2019-03-20T20:43:27.118Z,61.00
2019-03-20T20:45:59.907Z,60.60
2019-03-20T20:48:33.002Z,60.60
2019-03-20T20:51:05.670Z,61.20
2019-03-20T20:53:38.586Z,60.30
2019-03-20T20:56:11.387Z,59.80
2019-03-20T20:58:43.328Z,59.60
2019-03-20T21:01:15.801Z,59.70
2019-03-20T21:03:48.597Z,60.20
2019-03-20T21:06:21.395Z,60.80
2019-03-20T21:08:53.505Z,61.70
2019-03-20T21:11:26.104Z,62.00
2019-03-20T21:13:58.855Z,61.80
2019-03-20T21:16:30.800Z,61.50
2019-03-20T21:19:21.921Z,61.60
2019-03-20T21:22:00.188Z,61.40
2019-03-20T21:24:37.777Z,60.70
2019-03-20T21:27:10.495Z,60.80
2019-03-20T21:30:21.002Z,60.00
2019-03-20T21:32:57.102Z,59.70
2019-03-20T21:35:34.763Z,60.00
2019-03-20T21:38:27.160Z,59.20
2019-03-20T21:41:28.931Z,59.50
2019-03-20T21:44:06.573Z,59.40
2019-03-20T21:46:59.558Z,59.10
2019-03-20T21:49:31.350Z,59.10
2019-03-20T21:52:03.319Z,60.40
2019-03-20T21:54:38.953Z,60.80
2019-03-20T21:57:15.547Z,60.90
2019-03-20T22:00:01.311Z,60.70
2019-03-20T22:02:48.336Z,60.70
2019-03-20T22:05:41.075Z,61.80
2019-03-20T22:08:13.952Z,61.40
2019-03-20T22:11:07.175Z,62.00
2019-03-20T22:13:42.444Z,62.50
2019-03-20T22:16:35.864Z,61.90
2019-03-20T22:19:09.040Z,61.80
2019-03-20T22:21:42.293Z,61.80
2019-03-20T22:24:51.309Z,63.00
2019-03-20T22:27:29.465Z,63.10
2019-03-20T22:30:02.353Z,63.30
2019-03-20T22:32:33.632Z,63.90
2019-03-20T22:35:14.248Z,63.90
2019-03-20T22:37:45.965Z,64.00
2019-03-20T22:40:17.263Z,64.40
2019-03-20T22:43:11.929Z,64.60
2019-03-20T22:46:02.218Z,63.70
2019-03-20T22:48:50.996Z,64.50
2019-03-20T22:51:28.437Z,64.30
2019-03-20T22:54:36.136Z,62.60
2019-03-20T22:57:26.779Z,62.60
2019-03-20T22:59:59.278Z,62.20
2019-03-20T23:02:35.501Z,62.00
2019-03-20T23:05:09.513Z,61.90
2019-03-20T23:07:42.419Z,61.70
2019-03-20T23:10:19.367Z,62.10
2019-03-20T23:12:52.050Z,62.80
2019-03-20T23:15:27.614Z,62.50
2019-03-20T23:18:03.819Z,62.90
2019-03-20T23:20:39.517Z,62.90
2019-03-20T23:23:16.058Z,62.50
2019-03-20T23:25:48.762Z,62.20
2019-03-20T23:28:21.744Z,62.30
2019-03-20T23:30:54.405Z,62.60
2019-03-20T23:33:27.472Z,62.40
2019-03-20T23:36:01.233Z,61.70
2019-03-20T23:38:33.973Z,61.60
2019-03-20T23:41:06.577Z,61.80
2019-03-20T23:43:39.219Z,61.40
2019-03-20T23:46:12.115Z,61.60
2019-03-20T23:48:49.724Z,62.80
2019-03-20T23:51:32.707Z,62.90
2019-03-20T23:54:07.908Z,63.30
2019-03-20T23:56:42.535Z,64.00
2019-03-20T23:59:15.399Z,63.80
